Impacts TAF Board
For situational awareness. Not to be used for flight planning purposes.
IDs:

KCVS - Clovis/Cannon AFB, NM, US

Issued at 1000 UTC 30 Oct 2020
Updated at 1739 UTC 30 Oct 2020
Potential Impact None Slight Moderate High
Time1658Z 30/18Z 30/19Z 30/20Z 30/21Z 30/22Z 30/23Z 31/00Z 31/01Z 31/02Z 31/03Z 31/04Z 31/05Z 31/06Z>>
Type OBS PRVL PRVL PRVL PRVL PRVL PRVL PRVL PRVL PRVL PRVL PRVL PRVL PRVL
VIS 8 >6 >6 >6 >6 >6 >6 >6 >6 >6 >6 >6 >6 >6
CIG -- -- -- -- -- -- -- -- -- -- -- -- -- --
Cover CLR FEW FEW FEW SKC SKC SKC SKC SKC SKC SKC SKC SKC SKC
FltCat VFR VFR VFR VFR VFR VFR VFR VFR VFR VFR VFR VFR VFR VFR
WX -- -- -- -- -- -- -- -- -- -- -- -- -- --
WDir 240 220 220 220 210 210 210 210 210 210 210 210 210 210
WSpd 14 12 12 12 8 8 8 8 8 8 8 8 8 8
WGst -- 18 18 18 -- -- -- -- -- -- -- -- -- --
Raw TAF
TAF KCVS 301000Z 3010/3116 VRB06KT 9999 SKC QNH3025INS
  BECMG 3014/3015 24010KT 9999 FEW210 QNH3027INS
  BECMG 3017/3018 22012G18KT 9999 FEW210 QNH3016INS
  BECMG 3021/3022 21008KT 9999 SKC QNH3010INS WND VRB06KT AFT 3024 TX18/3021Z TN03/3013Z


Raw METAR
KCVS 301658Z AUTO 24014KT 8SM CLR 14/03 A3028 RMK AO2 SLP235 T01370029 $
KCVS 301558Z AUTO 25010KT 8SM CLR 11/04 A3030 RMK AO2 SLP245 T01080038 $
KCVS 301458Z AUTO 24011KT 8SM CLR 08/03 A3030 RMK AO2 SLP248 T00760025 52008 $

METAR Board
For situational awareness. Not to be used for flight planning purposes.